sensor_id;sensor_type;location;lat;lon;timestamp;P1;durP1;ratioP1;P2;durP2;ratioP2
703;SDS011;335;48.694;9.120;2024-02-28T00:00:13;16.77;;;15.10;;
703;SDS011;335;48.694;9.120;2024-02-28T00:02:58;18.03;;;14.90;;
703;SDS011;335;48.694;9.120;2024-02-28T00:05:43;15.87;;;14.30;;
703;SDS011;335;48.694;9.120;2024-02-28T00:08:30;16.67;;;14.97;;
703;SDS011;335;48.694;9.120;2024-02-28T00:11:16;16.87;;;14.30;;
703;SDS011;335;48.694;9.120;2024-02-28T00:14:01;15.80;;;14.23;;
703;SDS011;335;48.694;9.120;2024-02-28T00:16:47;16.97;;;15.27;;
703;SDS011;335;48.694;9.120;2024-02-28T00:19:33;17.60;;;15.80;;
703;SDS011;335;48.694;9.120;2024-02-28T00:22:18;17.53;;;15.73;;
703;SDS011;335;48.694;9.120;2024-02-28T00:25:04;16.87;;;15.27;;
703;SDS011;335;48.694;9.120;2024-02-28T00:27:51;16.13;;;14.43;;
703;SDS011;335;48.694;9.120;2024-02-28T00:30:36;18.00;;;15.03;;
703;SDS011;335;48.694;9.120;2024-02-28T00:33:22;16.33;;;14.80;;
703;SDS011;335;48.694;9.120;2024-02-28T00:36:07;15.33;;;13.93;;
703;SDS011;335;48.694;9.120;2024-02-28T00:38:52;15.13;;;13.70;;
703;SDS011;335;48.694;9.120;2024-02-28T00:41:38;17.60;;;15.33;;
703;SDS011;335;48.694;9.120;2024-02-28T00:44:23;15.23;;;13.73;;
703;SDS011;335;48.694;9.120;2024-02-28T00:47:09;16.40;;;14.70;;
703;SDS011;335;48.694;9.120;2024-02-28T00:49:54;17.23;;;15.57;;
703;SDS011;335;48.694;9.120;2024-02-28T00:52:40;19.33;;;17.10;;
703;SDS011;335;48.694;9.120;2024-02-28T00:55:25;14.57;;;13.10;;
703;SDS011;335;48.694;9.120;2024-02-28T00:58:10;17.90;;;16.00;;
703;SDS011;335;48.694;9.120;2024-02-28T01:00:56;16.57;;;14.87;;
703;SDS011;335;48.694;9.120;2024-02-28T01:03:42;16.03;;;14.53;;
703;SDS011;335;48.694;9.120;2024-02-28T01:06:27;19.20;;;15.33;;
703;SDS011;335;48.694;9.120;2024-02-28T01:09:12;18.13;;;16.33;;
703;SDS011;335;48.694;9.120;2024-02-28T01:11:58;17.63;;;15.67;;
703;SDS011;335;48.694;9.120;2024-02-28T01:14:43;17.87;;;16.00;;
703;SDS011;335;48.694;9.120;2024-02-28T01:17:28;19.33;;;16.37;;
703;SDS011;335;48.694;9.120;2024-02-28T01:20:14;19.73;;;17.10;;
703;SDS011;335;48.694;9.120;2024-02-28T01:22:59;18.77;;;16.33;;
703;SDS011;335;48.694;9.120;2024-02-28T01:25:44;17.33;;;14.70;;
703;SDS011;335;48.694;9.120;2024-02-28T01:28:30;17.90;;;16.07;;
703;SDS011;335;48.694;9.120;2024-02-28T01:31:15;19.10;;;16.30;;
703;SDS011;335;48.694;9.120;2024-02-28T01:34:01;17.93;;;16.07;;
703;SDS011;335;48.694;9.120;2024-02-28T01:36:46;18.80;;;16.80;;
703;SDS011;335;48.694;9.120;2024-02-28T01:39:31;19.57;;;16.53;;
703;SDS011;335;48.694;9.120;2024-02-28T01:42:17;18.40;;;16.30;;
703;SDS011;335;48.694;9.120;2024-02-28T01:45:03;16.77;;;15.07;;
703;SDS011;335;48.694;9.120;2024-02-28T01:47:48;22.53;;;17.53;;
703;SDS011;335;48.694;9.120;2024-02-28T01:50:34;19.00;;;16.20;;
703;SDS011;335;48.694;9.120;2024-02-28T01:53:20;20.13;;;17.17;;
703;SDS011;335;48.694;9.120;2024-02-28T01:56:05;19.77;;;16.73;;
703;SDS011;335;48.694;9.120;2024-02-28T01:58:51;16.93;;;15.10;;
703;SDS011;335;48.694;9.120;2024-02-28T02:01:37;19.20;;;17.07;;
703;SDS011;335;48.694;9.120;2024-02-28T02:04:23;19.40;;;17.40;;
703;SDS011;335;48.694;9.120;2024-02-28T02:07:08;19.27;;;16.87;;
703;SDS011;335;48.694;9.120;2024-02-28T02:09:53;20.10;;;17.00;;
703;SDS011;335;48.694;9.120;2024-02-28T02:12:39;17.23;;;15.40;;
703;SDS011;335;48.694;9.120;2024-02-28T02:15:24;23.30;;;18.00;;
703;SDS011;335;48.694;9.120;2024-02-28T02:18:09;20.23;;;16.97;;
703;SDS011;335;48.694;9.120;2024-02-28T02:20:58;19.00;;;17.00;;
703;SDS011;335;48.694;9.120;2024-02-28T02:23:50;19.63;;;17.53;;
703;SDS011;335;48.694;9.120;2024-02-28T02:26:36;22.43;;;18.43;;
703;SDS011;335;48.694;9.120;2024-02-28T02:29:21;21.43;;;18.00;;
703;SDS011;335;48.694;9.120;2024-02-28T02:32:06;23.07;;;18.37;;
703;SDS011;335;48.694;9.120;2024-02-28T02:34:52;23.47;;;19.53;;
703;SDS011;335;48.694;9.120;2024-02-28T02:37:37;21.50;;;18.33;;
703;SDS011;335;48.694;9.120;2024-02-28T02:40:22;21.00;;;18.40;;
703;SDS011;335;48.694;9.120;2024-02-28T02:43:08;22.27;;;18.40;;
703;SDS011;335;48.694;9.120;2024-02-28T02:45:54;20.57;;;18.37;;
703;SDS011;335;48.694;9.120;2024-02-28T02:48:39;24.23;;;18.23;;
703;SDS011;335;48.694;9.120;2024-02-28T02:51:25;22.70;;;17.53;;
703;SDS011;335;48.694;9.120;2024-02-28T02:54:10;23.70;;;20.03;;
703;SDS011;335;48.694;9.120;2024-02-28T02:56:56;20.47;;;17.73;;
703;SDS011;335;48.694;9.120;2024-02-28T02:59:41;19.60;;;17.43;;
703;SDS011;335;48.694;9.120;2024-02-28T03:02:26;19.17;;;17.17;;
703;SDS011;335;48.694;9.120;2024-02-28T03:05:12;23.53;;;19.20;;
703;SDS011;335;48.694;9.120;2024-02-28T03:07:57;20.10;;;17.90;;
703;SDS011;335;48.694;9.120;2024-02-28T03:10:42;21.17;;;18.80;;
703;SDS011;335;48.694;9.120;2024-02-28T03:13:28;19.77;;;17.67;;
703;SDS011;335;48.694;9.120;2024-02-28T03:16:13;22.07;;;19.70;;
703;SDS011;335;48.694;9.120;2024-02-28T03:18:58;21.43;;;19.13;;
703;SDS011;335;48.694;9.120;2024-02-28T03:21:44;19.70;;;17.60;;
703;SDS011;335;48.694;9.120;2024-02-28T03:24:29;19.53;;;17.43;;
703;SDS011;335;48.694;9.120;2024-02-28T03:27:15;20.50;;;18.40;;
703;SDS011;335;48.694;9.120;2024-02-28T03:30:00;21.97;;;19.37;;
703;SDS011;335;48.694;9.120;2024-02-28T03:32:48;21.43;;;19.13;;
703;SDS011;335;48.694;9.120;2024-02-28T03:35:33;22.63;;;18.77;;
703;SDS011;335;48.694;9.120;2024-02-28T03:38:18;22.00;;;18.70;;
703;SDS011;335;48.694;9.120;2024-02-28T03:41:05;23.83;;;18.60;;
703;SDS011;335;48.694;9.120;2024-02-28T03:43:50;19.20;;;17.20;;
703;SDS011;335;48.694;9.120;2024-02-28T03:46:35;18.27;;;16.27;;
703;SDS011;335;48.694;9.120;2024-02-28T03:49:20;20.70;;;18.33;;
703;SDS011;335;48.694;9.120;2024-02-28T03:52:06;22.43;;;20.07;;
703;SDS011;335;48.694;9.120;2024-02-28T03:54:51;22.83;;;19.03;;
703;SDS011;335;48.694;9.120;2024-02-28T03:57:37;19.90;;;17.90;;
703;SDS011;335;48.694;9.120;2024-02-28T04:00:22;20.37;;;17.90;;
703;SDS011;335;48.694;9.120;2024-02-28T04:03:07;20.97;;;18.27;;
703;SDS011;335;48.694;9.120;2024-02-28T04:05:53;18.17;;;16.20;;
703;SDS011;335;48.694;9.120;2024-02-28T04:08:40;20.43;;;18.30;;
703;SDS011;335;48.694;9.120;2024-02-28T04:11:25;19.63;;;17.53;;
703;SDS011;335;48.694;9.120;2024-02-28T04:14:11;20.57;;;18.23;;
703;SDS011;335;48.694;9.120;2024-02-28T04:16:56;22.03;;;18.60;;
703;SDS011;335;48.694;9.120;2024-02-28T04:19:41;19.83;;;17.83;;
703;SDS011;335;48.694;9.120;2024-02-28T04:22:27;19.93;;;17.83;;
703;SDS011;335;48.694;9.120;2024-02-28T04:25:12;23.90;;;20.07;;
703;SDS011;335;48.694;9.120;2024-02-28T04:27:57;20.20;;;17.10;;
703;SDS011;335;48.694;9.120;2024-02-28T04:30:43;22.10;;;18.10;;
703;SDS011;335;48.694;9.120;2024-02-28T04:33:28;19.60;;;17.50;;
703;SDS011;335;48.694;9.120;2024-02-28T04:36:14;22.10;;;18.80;;
703;SDS011;335;48.694;9.120;2024-02-28T04:39:01;20.70;;;18.53;;
703;SDS011;335;48.694;9.120;2024-02-28T04:41:46;19.50;;;17.40;;
703;SDS011;335;48.694;9.120;2024-02-28T04:44:31;22.48;;;19.33;;
703;SDS011;335;48.694;9.120;2024-02-28T04:47:17;20.63;;;18.20;;
703;SDS011;335;48.694;9.120;2024-02-28T04:50:02;21.97;;;19.57;;
703;SDS011;335;48.694;9.120;2024-02-28T04:52:49;21.50;;;18.83;;
703;SDS011;335;48.694;9.120;2024-02-28T04:55:35;21.77;;;18.60;;
703;SDS011;335;48.694;9.120;2024-02-28T04:58:20;22.13;;;17.60;;
703;SDS011;335;48.694;9.120;2024-02-28T05:01:05;23.57;;;18.10;;
703;SDS011;335;48.694;9.120;2024-02-28T05:03:51;23.90;;;18.97;;
703;SDS011;335;48.694;9.120;2024-02-28T05:06:36;20.83;;;17.10;;
703;SDS011;335;48.694;9.120;2024-02-28T05:09:21;21.80;;;16.77;;
703;SDS011;335;48.694;9.120;2024-02-28T05:12:07;21.42;;;17.00;;
703;SDS011;335;48.694;9.120;2024-02-28T05:14:53;24.40;;;19.87;;
703;SDS011;335;48.694;9.120;2024-02-28T05:17:38;20.10;;;18.00;;
703;SDS011;335;48.694;9.120;2024-02-28T05:20:24;21.27;;;18.47;;
703;SDS011;335;48.694;9.120;2024-02-28T05:23:09;21.08;;;17.88;;
703;SDS011;335;48.694;9.120;2024-02-28T05:25:55;19.67;;;17.67;;
703;SDS011;335;48.694;9.120;2024-02-28T05:28:40;19.80;;;17.70;;
703;SDS011;335;48.694;9.120;2024-02-28T05:31:26;22.10;;;18.50;;
703;SDS011;335;48.694;9.120;2024-02-28T05:34:11;20.73;;;17.50;;
703;SDS011;335;48.694;9.120;2024-02-28T05:36:57;20.33;;;18.23;;
703;SDS011;335;48.694;9.120;2024-02-28T05:39:42;20.10;;;16.80;;
703;SDS011;335;48.694;9.120;2024-02-28T05:42:27;21.53;;;17.40;;
703;SDS011;335;48.694;9.120;2024-02-28T05:45:13;23.37;;;19.73;;
703;SDS011;335;48.694;9.120;2024-02-28T05:47:59;20.90;;;17.77;;
703;SDS011;335;48.694;9.120;2024-02-28T05:50:44;21.60;;;18.53;;
703;SDS011;335;48.694;9.120;2024-02-28T05:53:30;21.80;;;19.40;;
703;SDS011;335;48.694;9.120;2024-02-28T05:56:20;20.93;;;18.20;;
703;SDS011;335;48.694;9.120;2024-02-28T05:59:07;22.63;;;18.63;;
703;SDS011;335;48.694;9.120;2024-02-28T06:01:52;19.27;;;17.23;;
703;SDS011;335;48.694;9.120;2024-02-28T06:04:38;19.47;;;17.47;;
703;SDS011;335;48.694;9.120;2024-02-28T06:07:23;20.27;;;18.17;;
703;SDS011;335;48.694;9.120;2024-02-28T06:10:09;21.33;;;18.40;;
703;SDS011;335;48.694;9.120;2024-02-28T06:12:55;19.13;;;17.17;;
703;SDS011;335;48.694;9.120;2024-02-28T06:15:40;21.03;;;18.83;;
703;SDS011;335;48.694;9.120;2024-02-28T06:18:27;20.80;;;18.17;;
703;SDS011;335;48.694;9.120;2024-02-28T06:21:13;19.67;;;17.10;;
703;SDS011;335;48.694;9.120;2024-02-28T06:23:59;21.77;;;19.33;;
703;SDS011;335;48.694;9.120;2024-02-28T06:26:44;20.80;;;18.60;;
703;SDS011;335;48.694;9.120;2024-02-28T06:29:29;23.87;;;20.50;;
703;SDS011;335;48.694;9.120;2024-02-28T06:32:15;22.77;;;20.47;;
703;SDS011;335;48.694;9.120;2024-02-28T06:35:00;21.83;;;19.37;;
703;SDS011;335;48.694;9.120;2024-02-28T06:37:46;21.50;;;17.77;;
703;SDS011;335;48.694;9.120;2024-02-28T06:40:34;22.50;;;19.43;;
703;SDS011;335;48.694;9.120;2024-02-28T06:43:20;25.17;;;20.47;;
703;SDS011;335;48.694;9.120;2024-02-28T06:46:05;21.93;;;19.67;;
703;SDS011;335;48.694;9.120;2024-02-28T06:48:50;25.17;;;20.37;;
703;SDS011;335;48.694;9.120;2024-02-28T06:51:36;21.93;;;19.67;;
703;SDS011;335;48.694;9.120;2024-02-28T06:54:21;22.00;;;18.93;;
703;SDS011;335;48.694;9.120;2024-02-28T06:57:07;20.77;;;18.57;;
703;SDS011;335;48.694;9.120;2024-02-28T06:59:52;22.10;;;19.67;;
703;SDS011;335;48.694;9.120;2024-02-28T07:02:37;19.20;;;17.17;;
703;SDS011;335;48.694;9.120;2024-02-28T07:05:23;21.57;;;19.37;;
703;SDS011;335;48.694;9.120;2024-02-28T07:08:09;21.00;;;18.87;;
703;SDS011;335;48.694;9.120;2024-02-28T07:10:56;20.43;;;18.13;;
703;SDS011;335;48.694;9.120;2024-02-28T07:13:42;20.90;;;17.60;;
703;SDS011;335;48.694;9.120;2024-02-28T07:16:30;19.97;;;17.43;;
703;SDS011;335;48.694;9.120;2024-02-28T07:19:18;21.73;;;19.53;;
703;SDS011;335;48.694;9.120;2024-02-28T07:22:04;19.50;;;17.30;;
703;SDS011;335;48.694;9.120;2024-02-28T07:24:50;20.30;;;18.17;;
703;SDS011;335;48.694;9.120;2024-02-28T07:27:35;18.80;;;16.87;;
703;SDS011;335;48.694;9.120;2024-02-28T07:30:21;19.60;;;17.50;;
703;SDS011;335;48.694;9.120;2024-02-28T07:33:06;19.23;;;17.23;;
703;SDS011;335;48.694;9.120;2024-02-28T07:35:52;17.50;;;15.70;;
703;SDS011;335;48.694;9.120;2024-02-28T07:38:37;18.97;;;17.07;;
703;SDS011;335;48.694;9.120;2024-02-28T07:41:23;17.73;;;15.90;;
703;SDS011;335;48.694;9.120;2024-02-28T07:44:08;17.57;;;15.47;;
703;SDS011;335;48.694;9.120;2024-02-28T07:46:54;19.23;;;16.47;;
703;SDS011;335;48.694;9.120;2024-02-28T07:49:40;18.60;;;16.63;;
703;SDS011;335;48.694;9.120;2024-02-28T07:52:25;18.87;;;16.90;;
703;SDS011;335;48.694;9.120;2024-02-28T07:55:11;17.00;;;15.40;;
703;SDS011;335;48.694;9.120;2024-02-28T07:57:56;17.27;;;14.60;;
703;SDS011;335;48.694;9.120;2024-02-28T08:00:41;16.93;;;15.13;;
703;SDS011;335;48.694;9.120;2024-02-28T08:03:28;17.43;;;15.80;;
703;SDS011;335;48.694;9.120;2024-02-28T08:06:13;16.20;;;14.60;;
703;SDS011;335;48.694;9.120;2024-02-28T08:08:58;16.87;;;15.10;;
703;SDS011;335;48.694;9.120;2024-02-28T08:11:44;18.33;;;15.73;;
703;SDS011;335;48.694;9.120;2024-02-28T08:14:29;18.93;;;15.90;;
703;SDS011;335;48.694;9.120;2024-02-28T08:17:14;16.50;;;14.90;;
703;SDS011;335;48.694;9.120;2024-02-28T08:20:00;18.07;;;16.17;;
703;SDS011;335;48.694;9.120;2024-02-28T08:22:47;17.20;;;15.40;;
703;SDS011;335;48.694;9.120;2024-02-28T08:25:32;18.43;;;16.40;;
703;SDS011;335;48.694;9.120;2024-02-28T08:28:17;17.00;;;14.83;;
703;SDS011;335;48.694;9.120;2024-02-28T08:31:03;18.27;;;16.37;;
703;SDS011;335;48.694;9.120;2024-02-28T08:33:48;16.97;;;14.87;;
703;SDS011;335;48.694;9.120;2024-02-28T08:36:34;17.37;;;15.63;;
703;SDS011;335;48.694;9.120;2024-02-28T08:39:20;18.70;;;16.73;;
703;SDS011;335;48.694;9.120;2024-02-28T08:42:06;16.07;;;14.40;;
703;SDS011;335;48.694;9.120;2024-02-28T08:44:52;18.33;;;15.87;;
703;SDS011;335;48.694;9.120;2024-02-28T08:47:40;17.07;;;15.40;;
703;SDS011;335;48.694;9.120;2024-02-28T08:50:26;18.07;;;16.17;;
703;SDS011;335;48.694;9.120;2024-02-28T08:53:13;17.80;;;15.53;;
703;SDS011;335;48.694;9.120;2024-02-28T08:55:58;14.67;;;13.40;;
703;SDS011;335;48.694;9.120;2024-02-28T08:58:44;13.50;;;12.27;;
703;SDS011;335;48.694;9.120;2024-02-28T09:01:29;15.63;;;14.13;;
703;SDS011;335;48.694;9.120;2024-02-28T09:04:15;15.30;;;13.70;;
703;SDS011;335;48.694;9.120;2024-02-28T09:07:00;14.30;;;12.80;;
703;SDS011;335;48.694;9.120;2024-02-28T09:09:46;13.37;;;12.07;;
703;SDS011;335;48.694;9.120;2024-02-28T09:12:32;14.23;;;12.83;;
703;SDS011;335;48.694;9.120;2024-02-28T09:15:18;14.10;;;12.70;;
703;SDS011;335;48.694;9.120;2024-02-28T09:18:04;13.13;;;11.93;;
703;SDS011;335;48.694;9.120;2024-02-28T09:20:50;13.70;;;12.40;;
703;SDS011;335;48.694;9.120;2024-02-28T09:23:35;15.30;;;13.70;;
703;SDS011;335;48.694;9.120;2024-02-28T09:26:20;16.40;;;14.70;;
703;SDS011;335;48.694;9.120;2024-02-28T09:29:06;14.60;;;13.10;;
703;SDS011;335;48.694;9.120;2024-02-28T09:31:51;13.60;;;12.20;;
703;SDS011;335;48.694;9.120;2024-02-28T09:34:37;14.73;;;13.27;;
703;SDS011;335;48.694;9.120;2024-02-28T09:37:22;15.90;;;14.30;;
703;SDS011;335;48.694;9.120;2024-02-28T09:40:09;16.87;;;15.27;;
703;SDS011;335;48.694;9.120;2024-02-28T09:43:04;16.63;;;14.97;;
703;SDS011;335;48.694;9.120;2024-02-28T09:45:50;17.97;;;16.13;;
703;SDS011;335;48.694;9.120;2024-02-28T09:48:35;18.07;;;16.17;;
703;SDS011;335;48.694;9.120;2024-02-28T09:51:24;20.40;;;18.23;;
703;SDS011;335;48.694;9.120;2024-02-28T09:54:10;17.00;;;15.30;;
703;SDS011;335;48.694;9.120;2024-02-28T09:56:55;20.57;;;16.27;;
703;SDS011;335;48.694;9.120;2024-02-28T09:59:41;20.43;;;17.63;;
703;SDS011;335;48.694;9.120;2024-02-28T10:02:27;19.50;;;17.40;;
703;SDS011;335;48.694;9.120;2024-02-28T10:05:13;20.47;;;18.03;;
703;SDS011;335;48.694;9.120;2024-02-28T10:07:59;19.83;;;17.77;;
703;SDS011;335;48.694;9.120;2024-02-28T10:10:47;19.17;;;17.10;;
703;SDS011;335;48.694;9.120;2024-02-28T10:13:33;23.03;;;17.47;;
703;SDS011;335;48.694;9.120;2024-02-28T10:16:18;16.47;;;14.70;;
703;SDS011;335;48.694;9.120;2024-02-28T10:19:04;17.00;;;15.30;;
703;SDS011;335;48.694;9.120;2024-02-28T10:21:50;17.50;;;15.70;;
703;SDS011;335;48.694;9.120;2024-02-28T10:24:35;18.10;;;16.10;;
703;SDS011;335;48.694;9.120;2024-02-28T10:27:23;17.37;;;15.57;;
703;SDS011;335;48.694;9.120;2024-02-28T10:30:08;15.00;;;13.50;;
703;SDS011;335;48.694;9.120;2024-02-28T10:32:53;16.63;;;14.97;;
703;SDS011;335;48.694;9.120;2024-02-28T10:35:39;15.83;;;13.90;;
703;SDS011;335;48.694;9.120;2024-02-28T10:38:26;16.37;;;14.67;;
703;SDS011;335;48.694;9.120;2024-02-28T10:41:11;17.43;;;15.67;;
703;SDS011;335;48.694;9.120;2024-02-28T10:43:59;16.87;;;15.27;;
703;SDS011;335;48.694;9.120;2024-02-28T10:46:44;19.70;;;14.80;;
703;SDS011;335;48.694;9.120;2024-02-28T10:49:34;17.13;;;15.03;;
703;SDS011;335;48.694;9.120;2024-02-28T10:52:19;16.90;;;14.97;;
703;SDS011;335;48.694;9.120;2024-02-28T10:55:07;15.43;;;13.93;;
703;SDS011;335;48.694;9.120;2024-02-28T10:57:54;17.03;;;15.33;;
703;SDS011;335;48.694;9.120;2024-02-28T11:00:44;17.93;;;15.40;;
703;SDS011;335;48.694;9.120;2024-02-28T11:03:30;17.93;;;15.97;;
703;SDS011;335;48.694;9.120;2024-02-28T11:06:19;18.57;;;16.63;;
703;SDS011;335;48.694;9.120;2024-02-28T11:09:06;16.23;;;14.60;;
703;SDS011;335;48.694;9.120;2024-02-28T11:11:56;15.27;;;13.90;;
703;SDS011;335;48.694;9.120;2024-02-28T11:14:42;18.67;;;14.90;;
703;SDS011;335;48.694;9.120;2024-02-28T11:17:28;17.43;;;15.53;;
703;SDS011;335;48.694;9.120;2024-02-28T11:20:14;17.00;;;15.00;;
703;SDS011;335;48.694;9.120;2024-02-28T11:22:59;14.90;;;13.40;;
703;SDS011;335;48.694;9.120;2024-02-28T11:25:48;16.47;;;14.87;;
703;SDS011;335;48.694;9.120;2024-02-28T11:28:34;16.70;;;15.00;;
703;SDS011;335;48.694;9.120;2024-02-28T11:31:19;16.27;;;14.67;;
703;SDS011;335;48.694;9.120;2024-02-28T11:34:05;15.73;;;14.27;;
703;SDS011;335;48.694;9.120;2024-02-28T11:36:50;16.50;;;14.80;;
703;SDS011;335;48.694;9.120;2024-02-28T11:39:38;16.33;;;14.63;;
703;SDS011;335;48.694;9.120;2024-02-28T11:42:23;17.10;;;15.30;;
703;SDS011;335;48.694;9.120;2024-02-28T11:45:09;15.83;;;14.00;;
703;SDS011;335;48.694;9.120;2024-02-28T11:47:55;16.43;;;14.83;;
703;SDS011;335;48.694;9.120;2024-02-28T11:50:41;16.70;;;15.17;;
703;SDS011;335;48.694;9.120;2024-02-28T11:53:26;17.40;;;15.60;;
703;SDS011;335;48.694;9.120;2024-02-28T11:56:11;18.13;;;16.20;;
703;SDS011;335;48.694;9.120;2024-02-28T11:59:02;18.40;;;15.87;;
703;SDS011;335;48.694;9.120;2024-02-28T12:01:49;17.43;;;15.53;;
703;SDS011;335;48.694;9.120;2024-02-28T12:04:35;17.43;;;15.63;;
703;SDS011;335;48.694;9.120;2024-02-28T12:07:21;16.93;;;15.30;;
703;SDS011;335;48.694;9.120;2024-02-28T12:10:06;18.00;;;16.07;;
703;SDS011;335;48.694;9.120;2024-02-28T12:12:57;15.70;;;14.20;;
703;SDS011;335;48.694;9.120;2024-02-28T12:15:44;19.43;;;17.37;;
703;SDS011;335;48.694;9.120;2024-02-28T12:18:30;16.23;;;14.60;;
703;SDS011;335;48.694;9.120;2024-02-28T12:21:16;16.63;;;15.03;;
703;SDS011;335;48.694;9.120;2024-02-28T12:24:01;16.73;;;15.03;;
703;SDS011;335;48.694;9.120;2024-02-28T12:26:46;16.20;;;14.60;;
703;SDS011;335;48.694;9.120;2024-02-28T12:29:32;16.47;;;14.83;;
703;SDS011;335;48.694;9.120;2024-02-28T12:32:17;17.73;;;15.83;;
703;SDS011;335;48.694;9.120;2024-02-28T12:35:03;16.93;;;15.23;;
703;SDS011;335;48.694;9.120;2024-02-28T12:37:49;15.80;;;13.63;;
703;SDS011;335;48.694;9.120;2024-02-28T12:40:34;16.03;;;14.33;;
703;SDS011;335;48.694;9.120;2024-02-28T12:43:19;17.20;;;15.50;;
703;SDS011;335;48.694;9.120;2024-02-28T12:46:05;16.20;;;14.60;;
703;SDS011;335;48.694;9.120;2024-02-28T12:48:50;18.80;;;16.90;;
703;SDS011;335;48.694;9.120;2024-02-28T12:51:43;18.17;;;16.10;;
703;SDS011;335;48.694;9.120;2024-02-28T12:54:30;17.40;;;15.60;;
703;SDS011;335;48.694;9.120;2024-02-28T12:57:15;18.33;;;16.40;;
703;SDS011;335;48.694;9.120;2024-02-28T13:00:01;16.80;;;15.20;;
703;SDS011;335;48.694;9.120;2024-02-28T13:02:47;17.73;;;15.73;;
703;SDS011;335;48.694;9.120;2024-02-28T13:05:32;17.10;;;15.40;;
703;SDS011;335;48.694;9.120;2024-02-28T13:08:17;15.37;;;13.87;;
703;SDS011;335;48.694;9.120;2024-02-28T13:11:03;17.00;;;15.30;;
703;SDS011;335;48.694;9.120;2024-02-28T13:13:49;18.27;;;16.37;;
703;SDS011;335;48.694;9.120;2024-02-28T13:16:34;16.90;;;15.10;;
703;SDS011;335;48.694;9.120;2024-02-28T13:19:20;16.60;;;14.90;;
703;SDS011;335;48.694;9.120;2024-02-28T13:22:05;16.03;;;14.53;;
703;SDS011;335;48.694;9.120;2024-02-28T13:24:51;16.40;;;14.63;;
703;SDS011;335;48.694;9.120;2024-02-28T13:27:36;16.80;;;15.20;;
703;SDS011;335;48.694;9.120;2024-02-28T13:30:21;17.13;;;14.13;;
703;SDS011;335;48.694;9.120;2024-02-28T13:33:07;16.67;;;14.53;;
703;SDS011;335;48.694;9.120;2024-02-28T13:35:52;16.00;;;14.37;;
703;SDS011;335;48.694;9.120;2024-02-28T13:38:38;17.17;;;15.47;;
703;SDS011;335;48.694;9.120;2024-02-28T13:41:23;17.30;;;15.57;;
703;SDS011;335;48.694;9.120;2024-02-28T13:44:09;17.67;;;14.70;;
703;SDS011;335;48.694;9.120;2024-02-28T13:46:54;16.70;;;15.00;;
703;SDS011;335;48.694;9.120;2024-02-28T13:49:40;16.70;;;14.80;;
703;SDS011;335;48.694;9.120;2024-02-28T13:52:25;16.53;;;14.80;;
703;SDS011;335;48.694;9.120;2024-02-28T13:55:10;17.40;;;15.40;;
703;SDS011;335;48.694;9.120;2024-02-28T13:57:56;16.53;;;14.93;;
703;SDS011;335;48.694;9.120;2024-02-28T14:00:41;17.40;;;15.57;;
703;SDS011;335;48.694;9.120;2024-02-28T14:03:27;16.83;;;14.80;;
703;SDS011;335;48.694;9.120;2024-02-28T14:06:13;15.30;;;13.77;;
703;SDS011;335;48.694;9.120;2024-02-28T14:08:59;17.13;;;15.23;;
703;SDS011;335;48.694;9.120;2024-02-28T14:11:45;16.43;;;14.73;;
703;SDS011;335;48.694;9.120;2024-02-28T14:14:30;17.00;;;15.20;;
703;SDS011;335;48.694;9.120;2024-02-28T14:17:16;17.33;;;15.73;;
703;SDS011;335;48.694;9.120;2024-02-28T14:20:01;16.90;;;14.30;;
703;SDS011;335;48.694;9.120;2024-02-28T14:22:47;17.50;;;15.70;;
703;SDS011;335;48.694;9.120;2024-02-28T14:25:32;17.50;;;15.30;;
703;SDS011;335;48.694;9.120;2024-02-28T14:28:18;17.50;;;15.60;;
703;SDS011;335;48.694;9.120;2024-02-28T14:31:04;17.30;;;15.17;;
703;SDS011;335;48.694;9.120;2024-02-28T14:33:50;16.90;;;14.77;;
703;SDS011;335;48.694;9.120;2024-02-28T14:36:35;17.10;;;15.30;;
703;SDS011;335;48.694;9.120;2024-02-28T14:39:20;16.87;;;15.07;;
703;SDS011;335;48.694;9.120;2024-02-28T14:42:06;17.73;;;15.87;;
703;SDS011;335;48.694;9.120;2024-02-28T14:44:53;15.43;;;13.43;;
703;SDS011;335;48.694;9.120;2024-02-28T14:47:39;15.70;;;14.20;;
703;SDS011;335;48.694;9.120;2024-02-28T14:50:25;16.83;;;15.13;;
703;SDS011;335;48.694;9.120;2024-02-28T14:53:10;15.37;;;13.63;;
703;SDS011;335;48.694;9.120;2024-02-28T14:55:55;16.73;;;14.93;;
703;SDS011;335;48.694;9.120;2024-02-28T14:58:41;15.53;;;12.87;;
703;SDS011;335;48.694;9.120;2024-02-28T15:01:26;16.37;;;14.60;;
703;SDS011;335;48.694;9.120;2024-02-28T15:04:11;17.80;;;15.20;;
703;SDS011;335;48.694;9.120;2024-02-28T15:06:59;15.80;;;14.20;;
703;SDS011;335;48.694;9.120;2024-02-28T15:09:44;16.43;;;14.83;;
703;SDS011;335;48.694;9.120;2024-02-28T15:12:31;17.60;;;15.80;;
703;SDS011;335;48.694;9.120;2024-02-28T15:15:17;15.00;;;13.50;;
703;SDS011;335;48.694;9.120;2024-02-28T15:18:03;16.53;;;14.83;;
703;SDS011;335;48.694;9.120;2024-02-28T15:20:48;15.73;;;14.13;;
703;SDS011;335;48.694;9.120;2024-02-28T15:23:34;16.73;;;15.03;;
703;SDS011;335;48.694;9.120;2024-02-28T15:26:20;17.07;;;15.40;;
703;SDS011;335;48.694;9.120;2024-02-28T15:29:05;19.77;;;17.07;;
703;SDS011;335;48.694;9.120;2024-02-28T15:31:50;21.93;;;17.67;;
703;SDS011;335;48.694;9.120;2024-02-28T15:34:36;17.50;;;15.20;;
703;SDS011;335;48.694;9.120;2024-02-28T15:37:21;18.97;;;15.80;;
703;SDS011;335;48.694;9.120;2024-02-28T15:40:06;15.60;;;14.03;;
703;SDS011;335;48.694;9.120;2024-02-28T15:42:52;17.63;;;15.47;;
703;SDS011;335;48.694;9.120;2024-02-28T15:45:37;18.63;;;16.30;;
703;SDS011;335;48.694;9.120;2024-02-28T15:48:24;18.40;;;16.17;;
703;SDS011;335;48.694;9.120;2024-02-28T15:51:10;18.97;;;16.63;;
703;SDS011;335;48.694;9.120;2024-02-28T15:53:55;18.90;;;15.57;;
703;SDS011;335;48.694;9.120;2024-02-28T15:56:41;15.23;;;13.57;;
703;SDS011;335;48.694;9.120;2024-02-28T15:59:28;16.57;;;14.87;;
703;SDS011;335;48.694;9.120;2024-02-28T16:02:13;17.40;;;15.33;;
703;SDS011;335;48.694;9.120;2024-02-28T16:04:59;18.10;;;16.20;;
703;SDS011;335;48.694;9.120;2024-02-28T16:07:46;16.57;;;14.80;;
703;SDS011;335;48.694;9.120;2024-02-28T16:10:31;16.20;;;14.60;;
703;SDS011;335;48.694;9.120;2024-02-28T16:13:16;19.10;;;15.50;;
703;SDS011;335;48.694;9.120;2024-02-28T16:16:02;16.37;;;14.70;;
703;SDS011;335;48.694;9.120;2024-02-28T16:18:48;15.40;;;13.83;;
703;SDS011;335;48.694;9.120;2024-02-28T16:21:33;17.20;;;15.40;;
703;SDS011;335;48.694;9.120;2024-02-28T16:24:18;17.40;;;14.80;;
703;SDS011;335;48.694;9.120;2024-02-28T16:27:04;16.47;;;14.77;;
703;SDS011;335;48.694;9.120;2024-02-28T16:29:50;15.93;;;14.33;;
703;SDS011;335;48.694;9.120;2024-02-28T16:32:35;17.47;;;15.33;;
703;SDS011;335;48.694;9.120;2024-02-28T16:35:21;19.87;;;17.77;;
703;SDS011;335;48.694;9.120;2024-02-28T16:38:06;21.10;;;18.50;;
703;SDS011;335;48.694;9.120;2024-02-28T16:40:51;20.17;;;18.00;;
703;SDS011;335;48.694;9.120;2024-02-28T16:43:37;19.00;;;17.00;;
703;SDS011;335;48.694;9.120;2024-02-28T16:46:22;20.03;;;17.77;;
703;SDS011;335;48.694;9.120;2024-02-28T16:49:08;21.30;;;18.60;;
703;SDS011;335;48.694;9.120;2024-02-28T16:51:53;21.77;;;18.93;;
703;SDS011;335;48.694;9.120;2024-02-28T16:54:38;18.53;;;16.40;;
703;SDS011;335;48.694;9.120;2024-02-28T16:57:24;19.63;;;17.07;;
703;SDS011;335;48.694;9.120;2024-02-28T17:00:09;19.90;;;17.80;;
703;SDS011;335;48.694;9.120;2024-02-28T17:02:55;20.47;;;16.80;;
703;SDS011;335;48.694;9.120;2024-02-28T17:05:40;24.77;;;20.40;;
703;SDS011;335;48.694;9.120;2024-02-28T17:08:27;19.00;;;17.00;;